sensor_id;sensor_type;location;lat;lon;timestamp;P1;durP1;ratioP1;P2;durP2;ratioP2
462;SDS011;218;51.902;9.542;2023-06-01T00:02:12;4.28;;;3.88;;
462;SDS011;218;51.902;9.542;2023-06-01T00:04:40;5.17;;;3.93;;
462;SDS011;218;51.902;9.542;2023-06-01T00:07:08;4.80;;;4.40;;
462;SDS011;218;51.902;9.542;2023-06-01T00:09:35;7.20;;;5.37;;
462;SDS011;218;51.902;9.542;2023-06-01T00:12:03;5.83;;;5.23;;
462;SDS011;218;51.902;9.542;2023-06-01T00:14:30;5.50;;;4.30;;
462;SDS011;218;51.902;9.542;2023-06-01T00:16:58;8.03;;;5.13;;
462;SDS011;218;51.902;9.542;2023-06-01T00:19:25;4.77;;;4.37;;
462;SDS011;218;51.902;9.542;2023-06-01T00:21:54;5.32;;;4.82;;
462;SDS011;218;51.902;9.542;2023-06-01T00:24:22;5.27;;;4.77;;
462;SDS011;218;51.902;9.542;2023-06-01T00:26:50;6.10;;;4.50;;
462;SDS011;218;51.902;9.542;2023-06-01T00:29:18;7.72;;;5.32;;
462;SDS011;218;51.902;9.542;2023-06-01T00:31:45;6.00;;;5.50;;
462;SDS011;218;51.902;9.542;2023-06-01T00:34:13;6.90;;;6.20;;
462;SDS011;218;51.902;9.542;2023-06-01T00:36:40;6.30;;;5.70;;
462;SDS011;218;51.902;9.542;2023-06-01T00:39:09;8.87;;;6.87;;
462;SDS011;218;51.902;9.542;2023-06-01T00:41:36;9.03;;;6.90;;
462;SDS011;218;51.902;9.542;2023-06-01T00:44:03;8.90;;;7.37;;
462;SDS011;218;51.902;9.542;2023-06-01T00:46:30;7.35;;;6.00;;
462;SDS011;218;51.902;9.542;2023-06-01T00:48:58;8.10;;;6.70;;
462;SDS011;218;51.902;9.542;2023-06-01T00:51:25;13.03;;;9.63;;
462;SDS011;218;51.902;9.542;2023-06-01T00:53:53;16.27;;;13.07;;
462;SDS011;218;51.902;9.542;2023-06-01T00:56:21;16.75;;;13.50;;
462;SDS011;218;51.902;9.542;2023-06-01T00:58:48;14.07;;;12.67;;
462;SDS011;218;51.902;9.542;2023-06-01T01:01:16;14.37;;;12.87;;
462;SDS011;218;51.902;9.542;2023-06-01T01:03:46;16.40;;;14.70;;
462;SDS011;218;51.902;9.542;2023-06-01T01:06:16;15.73;;;14.10;;
462;SDS011;218;51.902;9.542;2023-06-01T01:08:50;19.13;;;15.48;;
462;SDS011;218;51.902;9.542;2023-06-01T01:11:20;20.17;;;16.60;;
462;SDS011;218;51.902;9.542;2023-06-01T01:13:50;21.37;;;16.20;;
462;SDS011;218;51.902;9.542;2023-06-01T01:16:22;20.50;;;15.13;;
462;SDS011;218;51.902;9.542;2023-06-01T01:18:54;18.90;;;16.50;;
462;SDS011;218;51.902;9.542;2023-06-01T01:21:25;21.38;;;16.98;;
462;SDS011;218;51.902;9.542;2023-06-01T01:24:04;17.77;;;14.60;;
462;SDS011;218;51.902;9.542;2023-06-01T01:26:41;19.80;;;15.97;;
462;SDS011;218;51.902;9.542;2023-06-01T01:29:10;20.85;;;17.20;;
462;SDS011;218;51.902;9.542;2023-06-01T01:31:38;19.70;;;17.13;;
462;SDS011;218;51.902;9.542;2023-06-01T01:34:07;19.60;;;16.05;;
462;SDS011;218;51.902;9.542;2023-06-01T01:36:35;18.53;;;16.10;;
462;SDS011;218;51.902;9.542;2023-06-01T01:39:02;20.23;;;15.57;;
462;SDS011;218;51.902;9.542;2023-06-01T01:41:30;16.67;;;14.03;;
462;SDS011;218;51.902;9.542;2023-06-01T01:43:57;18.60;;;15.25;;
462;SDS011;218;51.902;9.542;2023-06-01T01:46:26;18.27;;;16.37;;
462;SDS011;218;51.902;9.542;2023-06-01T01:48:55;20.70;;;16.77;;
462;SDS011;218;51.902;9.542;2023-06-01T01:51:27;20.13;;;17.80;;
462;SDS011;218;51.902;9.542;2023-06-01T01:53:56;25.07;;;18.20;;
462;SDS011;218;51.902;9.542;2023-06-01T01:56:23;21.88;;;18.92;;
462;SDS011;218;51.902;9.542;2023-06-01T01:58:51;21.57;;;18.83;;
462;SDS011;218;51.902;9.542;2023-06-01T02:01:19;21.07;;;17.83;;
462;SDS011;218;51.902;9.542;2023-06-01T02:03:49;19.77;;;17.67;;
462;SDS011;218;51.902;9.542;2023-06-01T02:06:23;23.17;;;19.45;;
462;SDS011;218;51.902;9.542;2023-06-01T02:08:51;22.80;;;20.40;;
462;SDS011;218;51.902;9.542;2023-06-01T02:11:18;22.57;;;17.13;;
462;SDS011;218;51.902;9.542;2023-06-01T02:13:45;21.13;;;17.58;;
462;SDS011;218;51.902;9.542;2023-06-01T02:16:13;21.47;;;18.13;;
462;SDS011;218;51.902;9.542;2023-06-01T02:18:41;21.92;;;18.75;;
462;SDS011;218;51.902;9.542;2023-06-01T02:21:12;24.10;;;19.50;;
462;SDS011;218;51.902;9.542;2023-06-01T02:23:39;20.10;;;18.00;;
462;SDS011;218;51.902;9.542;2023-06-01T02:26:07;23.63;;;19.75;;
462;SDS011;218;51.902;9.542;2023-06-01T02:28:35;21.13;;;18.47;;
462;SDS011;218;51.902;9.542;2023-06-01T02:31:03;20.87;;;18.67;;
462;SDS011;218;51.902;9.542;2023-06-01T02:33:30;24.43;;;20.07;;
462;SDS011;218;51.902;9.542;2023-06-01T02:35:57;20.47;;;18.20;;
462;SDS011;218;51.902;9.542;2023-06-01T02:38:26;25.43;;;19.90;;
462;SDS011;218;51.902;9.542;2023-06-01T02:40:53;24.30;;;19.50;;
462;SDS011;218;51.902;9.542;2023-06-01T02:43:20;22.10;;;19.67;;
462;SDS011;218;51.902;9.542;2023-06-01T02:45:48;28.17;;;20.60;;
462;SDS011;218;51.902;9.542;2023-06-01T02:48:15;24.80;;;19.17;;
462;SDS011;218;51.902;9.542;2023-06-01T02:50:42;23.23;;;20.63;;
462;SDS011;218;51.902;9.542;2023-06-01T02:53:09;25.03;;;21.57;;
462;SDS011;218;51.902;9.542;2023-06-01T02:55:38;24.45;;;21.33;;
462;SDS011;218;51.902;9.542;2023-06-01T02:58:05;22.57;;;20.17;;
462;SDS011;218;51.902;9.542;2023-06-01T03:00:39;23.38;;;20.95;;
462;SDS011;218;51.902;9.542;2023-06-01T03:03:07;21.77;;;19.47;;
462;SDS011;218;51.902;9.542;2023-06-01T03:05:34;22.50;;;18.37;;
462;SDS011;218;51.902;9.542;2023-06-01T03:08:01;22.63;;;20.23;;
462;SDS011;218;51.902;9.542;2023-06-01T03:10:28;21.40;;;19.10;;
462;SDS011;218;51.902;9.542;2023-06-01T03:12:57;24.40;;;21.83;;
462;SDS011;218;51.902;9.542;2023-06-01T03:15:24;23.03;;;20.63;;
462;SDS011;218;51.902;9.542;2023-06-01T03:17:54;23.08;;;20.77;;
462;SDS011;218;51.902;9.542;2023-06-01T03:20:21;21.80;;;19.47;;
462;SDS011;218;51.902;9.542;2023-06-01T03:22:48;23.15;;;20.85;;
462;SDS011;218;51.902;9.542;2023-06-01T03:25:16;23.50;;;21.20;;
462;SDS011;218;51.902;9.542;2023-06-01T03:27:43;22.40;;;19.73;;
462;SDS011;218;51.902;9.542;2023-06-01T03:30:12;21.80;;;19.50;;
462;SDS011;218;51.902;9.542;2023-06-01T03:32:40;21.20;;;19.10;;
462;SDS011;218;51.902;9.542;2023-06-01T03:35:09;21.60;;;19.30;;
462;SDS011;218;51.902;9.542;2023-06-01T03:37:37;20.60;;;18.50;;
462;SDS011;218;51.902;9.542;2023-06-01T03:40:05;17.50;;;15.80;;
462;SDS011;218;51.902;9.542;2023-06-01T03:42:35;19.83;;;17.80;;
462;SDS011;218;51.902;9.542;2023-06-01T03:45:03;19.95;;;18.02;;
462;SDS011;218;51.902;9.542;2023-06-01T03:47:31;21.60;;;19.30;;
462;SDS011;218;51.902;9.542;2023-06-01T03:49:59;20.80;;;17.00;;
462;SDS011;218;51.902;9.542;2023-06-01T03:52:27;19.77;;;17.85;;
462;SDS011;218;51.902;9.542;2023-06-01T03:54:54;18.33;;;16.50;;
462;SDS011;218;51.902;9.542;2023-06-01T03:57:22;16.63;;;15.00;;
462;SDS011;218;51.902;9.542;2023-06-01T03:59:49;18.63;;;16.73;;
462;SDS011;218;51.902;9.542;2023-06-01T04:02:17;18.80;;;16.85;;
462;SDS011;218;51.902;9.542;2023-06-01T04:04:46;19.20;;;17.30;;
462;SDS011;218;51.902;9.542;2023-06-01T04:07:13;19.45;;;17.35;;
462;SDS011;218;51.902;9.542;2023-06-01T04:09:43;17.07;;;15.27;;
462;SDS011;218;51.902;9.542;2023-06-01T04:12:11;18.65;;;16.80;;
462;SDS011;218;51.902;9.542;2023-06-01T04:14:38;19.33;;;17.20;;
462;SDS011;218;51.902;9.542;2023-06-01T04:17:19;18.00;;;16.30;;
462;SDS011;218;51.902;9.542;2023-06-01T04:19:48;18.27;;;16.60;;
462;SDS011;218;51.902;9.542;2023-06-01T04:22:15;18.38;;;16.38;;
462;SDS011;218;51.902;9.542;2023-06-01T04:24:42;20.93;;;15.80;;
462;SDS011;218;51.902;9.542;2023-06-01T04:27:09;16.93;;;15.33;;
462;SDS011;218;51.902;9.542;2023-06-01T04:29:42;17.20;;;14.27;;
462;SDS011;218;51.902;9.542;2023-06-01T04:32:09;19.83;;;16.92;;
462;SDS011;218;51.902;9.542;2023-06-01T04:34:37;19.60;;;17.30;;
462;SDS011;218;51.902;9.542;2023-06-01T04:37:06;19.38;;;17.27;;
462;SDS011;218;51.902;9.542;2023-06-01T04:39:34;18.80;;;15.77;;
462;SDS011;218;51.902;9.542;2023-06-01T04:42:01;19.25;;;17.17;;
462;SDS011;218;51.902;9.542;2023-06-01T04:44:28;18.03;;;16.17;;
462;SDS011;218;51.902;9.542;2023-06-01T04:46:57;17.57;;;15.87;;
462;SDS011;218;51.902;9.542;2023-06-01T04:49:28;18.77;;;16.57;;
462;SDS011;218;51.902;9.542;2023-06-01T04:51:55;18.73;;;16.73;;
462;SDS011;218;51.902;9.542;2023-06-01T04:54:24;17.53;;;15.73;;
462;SDS011;218;51.902;9.542;2023-06-01T04:56:51;17.23;;;14.90;;
462;SDS011;218;51.902;9.542;2023-06-01T04:59:19;18.88;;;16.88;;
462;SDS011;218;51.902;9.542;2023-06-01T05:01:47;18.83;;;15.83;;
462;SDS011;218;51.902;9.542;2023-06-01T05:04:14;17.20;;;15.27;;
462;SDS011;218;51.902;9.542;2023-06-01T05:06:41;16.40;;;14.53;;
462;SDS011;218;51.902;9.542;2023-06-01T05:09:09;17.52;;;15.75;;
462;SDS011;218;51.902;9.542;2023-06-01T05:11:39;18.45;;;16.55;;
462;SDS011;218;51.902;9.542;2023-06-01T05:14:06;19.70;;;15.37;;
462;SDS011;218;51.902;9.542;2023-06-01T05:16:34;19.33;;;15.90;;
462;SDS011;218;51.902;9.542;2023-06-01T05:19:15;16.80;;;15.10;;
462;SDS011;218;51.902;9.542;2023-06-01T05:21:42;15.75;;;14.10;;
462;SDS011;218;51.902;9.542;2023-06-01T05:24:09;15.70;;;14.10;;
462;SDS011;218;51.902;9.542;2023-06-01T05:26:36;15.60;;;14.10;;
462;SDS011;218;51.902;9.542;2023-06-01T05:29:05;15.43;;;13.83;;
462;SDS011;218;51.902;9.542;2023-06-01T05:31:32;14.83;;;13.17;;
462;SDS011;218;51.902;9.542;2023-06-01T05:34:01;15.50;;;12.95;;
462;SDS011;218;51.902;9.542;2023-06-01T05:36:28;16.50;;;12.47;;
462;SDS011;218;51.902;9.542;2023-06-01T05:38:56;16.70;;;14.60;;
462;SDS011;218;51.902;9.542;2023-06-01T05:41:24;14.97;;;13.40;;
462;SDS011;218;51.902;9.542;2023-06-01T05:43:52;17.90;;;11.80;;
462;SDS011;218;51.902;9.542;2023-06-01T05:46:20;13.80;;;12.02;;
462;SDS011;218;51.902;9.542;2023-06-01T05:48:49;12.80;;;10.97;;
462;SDS011;218;51.902;9.542;2023-06-01T05:51:17;15.13;;;11.33;;
462;SDS011;218;51.902;9.542;2023-06-01T05:53:44;14.17;;;11.97;;
462;SDS011;218;51.902;9.542;2023-06-01T05:56:11;11.00;;;10.00;;
462;SDS011;218;51.902;9.542;2023-06-01T05:58:38;11.27;;;10.20;;
462;SDS011;218;51.902;9.542;2023-06-01T06:01:06;12.82;;;11.00;;
462;SDS011;218;51.902;9.542;2023-06-01T06:03:36;11.90;;;10.70;;
462;SDS011;218;51.902;9.542;2023-06-01T06:06:04;13.17;;;10.40;;
462;SDS011;218;51.902;9.542;2023-06-01T06:08:31;11.93;;;10.67;;
462;SDS011;218;51.902;9.542;2023-06-01T06:10:58;11.40;;;10.10;;
462;SDS011;218;51.902;9.542;2023-06-01T06:13:25;15.60;;;9.60;;
462;SDS011;218;51.902;9.542;2023-06-01T06:15:52;11.40;;;10.20;;
462;SDS011;218;51.902;9.542;2023-06-01T06:18:21;10.85;;;9.50;;
462;SDS011;218;51.902;9.542;2023-06-01T06:20:49;9.87;;;9.13;;
462;SDS011;218;51.902;9.542;2023-06-01T06:23:16;12.38;;;10.50;;
462;SDS011;218;51.902;9.542;2023-06-01T06:25:45;14.40;;;11.10;;
462;SDS011;218;51.902;9.542;2023-06-01T06:28:13;13.07;;;11.70;;
462;SDS011;218;51.902;9.542;2023-06-01T06:30:40;11.80;;;10.57;;
462;SDS011;218;51.902;9.542;2023-06-01T06:33:07;12.30;;;10.23;;
462;SDS011;218;51.902;9.542;2023-06-01T06:35:35;10.70;;;9.53;;
462;SDS011;218;51.902;9.542;2023-06-01T06:38:05;10.50;;;9.50;;
462;SDS011;218;51.902;9.542;2023-06-01T06:40:32;16.93;;;11.67;;
462;SDS011;218;51.902;9.542;2023-06-01T06:42:59;11.07;;;8.80;;
462;SDS011;218;51.902;9.542;2023-06-01T06:45:27;12.90;;;10.02;;
462;SDS011;218;51.902;9.542;2023-06-01T06:47:54;11.53;;;9.67;;
462;SDS011;218;51.902;9.542;2023-06-01T06:50:21;10.43;;;9.43;;
462;SDS011;218;51.902;9.542;2023-06-01T06:52:48;16.00;;;11.03;;
462;SDS011;218;51.902;9.542;2023-06-01T06:55:17;10.90;;;9.70;;
462;SDS011;218;51.902;9.542;2023-06-01T06:57:44;11.07;;;9.90;;
462;SDS011;218;51.902;9.542;2023-06-01T07:00:11;9.93;;;8.93;;
462;SDS011;218;51.902;9.542;2023-06-01T07:02:39;12.60;;;9.37;;
462;SDS011;218;51.902;9.542;2023-06-01T07:05:09;10.70;;;9.33;;
462;SDS011;218;51.902;9.542;2023-06-01T07:07:37;11.85;;;9.50;;
462;SDS011;218;51.902;9.542;2023-06-01T07:10:04;11.77;;;9.40;;
462;SDS011;218;51.902;9.542;2023-06-01T07:12:34;10.70;;;9.37;;
462;SDS011;218;51.902;9.542;2023-06-01T07:15:02;11.97;;;10.30;;
462;SDS011;218;51.902;9.542;2023-06-01T07:17:29;15.90;;;10.97;;
462;SDS011;218;51.902;9.542;2023-06-01T07:19:57;12.43;;;9.60;;
462;SDS011;218;51.902;9.542;2023-06-01T07:22:24;11.57;;;9.82;;
462;SDS011;218;51.902;9.542;2023-06-01T07:24:51;15.30;;;10.20;;
462;SDS011;218;51.902;9.542;2023-06-01T07:27:19;13.40;;;10.33;;
462;SDS011;218;51.902;9.542;2023-06-01T07:29:47;11.10;;;9.37;;
462;SDS011;218;51.902;9.542;2023-06-01T07:32:19;11.10;;;10.00;;
462;SDS011;218;51.902;9.542;2023-06-01T07:34:47;11.03;;;10.00;;
462;SDS011;218;51.902;9.542;2023-06-01T07:37:14;15.80;;;10.70;;
462;SDS011;218;51.902;9.542;2023-06-01T07:39:41;9.43;;;8.53;;
462;SDS011;218;51.902;9.542;2023-06-01T07:42:08;11.35;;;10.15;;
462;SDS011;218;51.902;9.542;2023-06-01T07:44:35;11.23;;;9.30;;
462;SDS011;218;51.902;9.542;2023-06-01T07:47:04;12.07;;;10.80;;
462;SDS011;218;51.902;9.542;2023-06-01T07:49:31;13.40;;;10.30;;
462;SDS011;218;51.902;9.542;2023-06-01T07:52:01;10.57;;;9.50;;
462;SDS011;218;51.902;9.542;2023-06-01T07:54:28;11.30;;;9.20;;
462;SDS011;218;51.902;9.542;2023-06-01T07:56:55;10.07;;;9.03;;
462;SDS011;218;51.902;9.542;2023-06-01T07:59:23;14.95;;;9.40;;
462;SDS011;218;51.902;9.542;2023-06-01T08:01:50;11.00;;;8.73;;
462;SDS011;218;51.902;9.542;2023-06-01T08:04:19;14.10;;;9.40;;
462;SDS011;218;51.902;9.542;2023-06-01T08:06:46;10.40;;;9.33;;
462;SDS011;218;51.902;9.542;2023-06-01T08:09:14;9.17;;;8.27;;
462;SDS011;218;51.902;9.542;2023-06-01T08:11:41;11.73;;;8.80;;
462;SDS011;218;51.902;9.542;2023-06-01T08:14:08;12.47;;;9.67;;
462;SDS011;218;51.902;9.542;2023-06-01T08:16:36;11.40;;;9.47;;
462;SDS011;218;51.902;9.542;2023-06-01T08:19:03;12.20;;;9.85;;
462;SDS011;218;51.902;9.542;2023-06-01T08:21:32;10.57;;;9.33;;
462;SDS011;218;51.902;9.542;2023-06-01T08:24:00;13.47;;;10.37;;
462;SDS011;218;51.902;9.542;2023-06-01T08:26:27;11.53;;;8.60;;
462;SDS011;218;51.902;9.542;2023-06-01T08:28:55;10.50;;;9.20;;
462;SDS011;218;51.902;9.542;2023-06-01T08:31:23;12.03;;;10.00;;
462;SDS011;218;51.902;9.542;2023-06-01T08:33:51;9.57;;;8.63;;
462;SDS011;218;51.902;9.542;2023-06-01T08:36:20;11.50;;;10.30;;
462;SDS011;218;51.902;9.542;2023-06-01T08:38:49;11.80;;;9.50;;
462;SDS011;218;51.902;9.542;2023-06-01T08:41:17;11.13;;;9.07;;
462;SDS011;218;51.902;9.542;2023-06-01T08:43:52;12.67;;;10.60;;
462;SDS011;218;51.902;9.542;2023-06-01T08:46:20;12.03;;;10.03;;
462;SDS011;218;51.902;9.542;2023-06-01T08:48:48;11.03;;;9.40;;
462;SDS011;218;51.902;9.542;2023-06-01T08:51:20;12.53;;;10.93;;
462;SDS011;218;51.902;9.542;2023-06-01T08:53:47;12.57;;;10.17;;
462;SDS011;218;51.902;9.542;2023-06-01T08:56:17;11.57;;;9.50;;
462;SDS011;218;51.902;9.542;2023-06-01T08:58:48;11.70;;;10.60;;
462;SDS011;218;51.902;9.542;2023-06-01T09:01:16;13.00;;;10.70;;
462;SDS011;218;51.902;9.542;2023-06-01T09:03:46;12.97;;;10.60;;
462;SDS011;218;51.902;9.542;2023-06-01T09:06:13;11.53;;;9.23;;
462;SDS011;218;51.902;9.542;2023-06-01T09:08:40;12.67;;;9.97;;
462;SDS011;218;51.902;9.542;2023-06-01T09:11:09;12.10;;;10.90;;
462;SDS011;218;51.902;9.542;2023-06-01T09:13:37;10.50;;;9.50;;
462;SDS011;218;51.902;9.542;2023-06-01T09:16:04;11.87;;;9.53;;
462;SDS011;218;51.902;9.542;2023-06-01T09:18:32;10.17;;;9.07;;
462;SDS011;218;51.902;9.542;2023-06-01T09:21:09;13.67;;;9.53;;
462;SDS011;218;51.902;9.542;2023-06-01T09:23:37;9.40;;;8.30;;
462;SDS011;218;51.902;9.542;2023-06-01T09:26:04;9.30;;;8.50;;
462;SDS011;218;51.902;9.542;2023-06-01T09:31:34;8.67;;;7.87;;
462;SDS011;218;51.902;9.542;2023-06-01T09:34:01;11.17;;;8.77;;
462;SDS011;218;51.902;9.542;2023-06-01T09:36:29;10.77;;;7.60;;
462;SDS011;218;51.902;9.542;2023-06-01T09:39:00;10.67;;;8.70;;
462;SDS011;218;51.902;9.542;2023-06-01T09:41:27;8.37;;;7.13;;
462;SDS011;218;51.902;9.542;2023-06-01T09:43:57;8.57;;;7.77;;
462;SDS011;218;51.902;9.542;2023-06-01T09:46:25;12.67;;;8.23;;
462;SDS011;218;51.902;9.542;2023-06-01T09:49:04;8.00;;;6.40;;
462;SDS011;218;51.902;9.542;2023-06-01T09:51:32;8.40;;;6.70;;
462;SDS011;218;51.902;9.542;2023-06-01T09:54:00;10.00;;;7.63;;
462;SDS011;218;51.902;9.542;2023-06-01T09:56:28;7.43;;;6.70;;
462;SDS011;218;51.902;9.542;2023-06-01T09:58:58;8.27;;;7.47;;
462;SDS011;218;51.902;9.542;2023-06-01T10:01:27;10.50;;;7.67;;
462;SDS011;218;51.902;9.542;2023-06-01T10:03:55;8.93;;;6.93;;
462;SDS011;218;51.902;9.542;2023-06-01T10:06:23;11.20;;;7.63;;
462;SDS011;218;51.902;9.542;2023-06-01T10:08:50;9.37;;;8.20;;
462;SDS011;218;51.902;9.542;2023-06-01T10:11:18;10.23;;;7.80;;
462;SDS011;218;51.902;9.542;2023-06-01T10:13:45;10.20;;;8.60;;
462;SDS011;218;51.902;9.542;2023-06-01T10:16:13;9.70;;;7.20;;
462;SDS011;218;51.902;9.542;2023-06-01T10:18:41;7.77;;;7.07;;
462;SDS011;218;51.902;9.542;2023-06-01T10:21:08;10.03;;;7.40;;
462;SDS011;218;51.902;9.542;2023-06-01T10:23:36;8.43;;;7.63;;
462;SDS011;218;51.902;9.542;2023-06-01T10:26:05;8.10;;;7.30;;
462;SDS011;218;51.902;9.542;2023-06-01T10:28:34;12.80;;;7.40;;
462;SDS011;218;51.902;9.542;2023-06-01T10:33:54;10.13;;;9.27;;
462;SDS011;218;51.902;9.542;2023-06-01T10:36:23;11.40;;;8.53;;
462;SDS011;218;51.902;9.542;2023-06-01T10:39:03;11.30;;;8.60;;
462;SDS011;218;51.902;9.542;2023-06-01T10:41:48;10.73;;;9.50;;
462;SDS011;218;51.902;9.542;2023-06-01T10:50:15;14.37;;;9.73;;
462;SDS011;218;51.902;9.542;2023-06-01T10:52:42;10.67;;;9.63;;
462;SDS011;218;51.902;9.542;2023-06-01T10:55:19;9.60;;;8.57;;
462;SDS011;218;51.902;9.542;2023-06-01T10:57:50;10.70;;;8.30;;
462;SDS011;218;51.902;9.542;2023-06-01T11:00:18;10.80;;;9.77;;
462;SDS011;218;51.902;9.542;2023-06-01T11:02:48;13.13;;;8.57;;
462;SDS011;218;51.902;9.542;2023-06-01T11:05:36;14.53;;;10.60;;
462;SDS011;218;51.902;9.542;2023-06-01T11:08:04;10.67;;;9.57;;
462;SDS011;218;51.902;9.542;2023-06-01T11:13:23;12.93;;;9.03;;
462;SDS011;218;51.902;9.542;2023-06-01T11:18:50;14.53;;;10.50;;
462;SDS011;218;51.902;9.542;2023-06-01T11:21:24;11.97;;;10.73;;
462;SDS011;218;51.902;9.542;2023-06-01T11:23:53;13.37;;;10.83;;
462;SDS011;218;51.902;9.542;2023-06-01T11:26:21;11.60;;;10.17;;
462;SDS011;218;51.902;9.542;2023-06-01T11:28:50;16.10;;;12.80;;
462;SDS011;218;51.902;9.542;2023-06-01T11:31:18;14.30;;;12.90;;
462;SDS011;218;51.902;9.542;2023-06-01T11:33:48;13.47;;;11.47;;
462;SDS011;218;51.902;9.542;2023-06-01T11:36:17;13.63;;;11.93;;
462;SDS011;218;51.902;9.542;2023-06-01T11:38:51;15.20;;;11.47;;
462;SDS011;218;51.902;9.542;2023-06-01T11:41:19;11.07;;;9.97;;
462;SDS011;218;51.902;9.542;2023-06-01T11:43:53;18.93;;;10.90;;
462;SDS011;218;51.902;9.542;2023-06-01T11:46:23;12.63;;;11.10;;
462;SDS011;218;51.902;9.542;2023-06-01T11:48:58;14.27;;;11.70;;
462;SDS011;218;51.902;9.542;2023-06-01T11:51:27;10.93;;;9.90;;
462;SDS011;218;51.902;9.542;2023-06-01T11:53:56;12.30;;;11.10;;
462;SDS011;218;51.902;9.542;2023-06-01T11:56:30;11.50;;;10.07;;
462;SDS011;218;51.902;9.542;2023-06-01T11:58:58;10.43;;;9.43;;
462;SDS011;218;51.902;9.542;2023-06-01T12:01:26;12.50;;;9.77;;
462;SDS011;218;51.902;9.542;2023-06-01T12:03:53;9.33;;;8.43;;
462;SDS011;218;51.902;9.542;2023-06-01T12:06:22;10.23;;;9.23;;
462;SDS011;218;51.902;9.542;2023-06-01T12:08:49;11.37;;;10.17;;
462;SDS011;218;51.902;9.542;2023-06-01T12:11:20;11.03;;;9.93;;
462;SDS011;218;51.902;9.542;2023-06-01T12:13:48;9.73;;;8.80;;
462;SDS011;218;51.902;9.542;2023-06-01T12:16:15;10.67;;;9.67;;
462;SDS011;218;51.902;9.542;2023-06-01T12:18:42;10.37;;;9.30;;
462;SDS011;218;51.902;9.542;2023-06-01T12:21:10;9.30;;;7.77;;
462;SDS011;218;51.902;9.542;2023-06-01T12:23:38;8.87;;;8.07;;
462;SDS011;218;51.902;9.542;2023-06-01T12:26:05;7.90;;;7.10;;
462;SDS011;218;51.902;9.542;2023-06-01T12:31:17;8.40;;;7.47;;
462;SDS011;218;51.902;9.542;2023-06-01T12:33:44;8.37;;;7.17;;
462;SDS011;218;51.902;9.542;2023-06-01T12:36:27;8.43;;;7.63;;
462;SDS011;218;51.902;9.542;2023-06-01T12:38:56;9.40;;;7.90;;
462;SDS011;218;51.902;9.542;2023-06-01T12:41:24;8.20;;;7.50;;
462;SDS011;218;51.902;9.542;2023-06-01T12:43:52;8.07;;;7.27;;
462;SDS011;218;51.902;9.542;2023-06-01T12:46:21;8.67;;;7.77;;
462;SDS011;218;51.902;9.542;2023-06-01T12:48:49;8.13;;;7.40;;
462;SDS011;218;51.902;9.542;2023-06-01T12:51:17;6.80;;;6.30;;
462;SDS011;218;51.902;9.542;2023-06-01T12:53:45;6.60;;;5.93;;
462;SDS011;218;51.902;9.542;2023-06-01T12:56:12;6.87;;;6.17;;
462;SDS011;218;51.902;9.542;2023-06-01T12:58:40;6.93;;;6.27;;
462;SDS011;218;51.902;9.542;2023-06-01T13:01:07;8.07;;;7.27;;
462;SDS011;218;51.902;9.542;2023-06-01T13:03:36;7.83;;;7.10;;
462;SDS011;218;51.902;9.542;2023-06-01T13:06:02;6.93;;;6.37;;
462;SDS011;218;51.902;9.542;2023-06-01T13:08:30;7.07;;;6.37;;
462;SDS011;218;51.902;9.542;2023-06-01T13:10:59;6.70;;;6.20;;
462;SDS011;218;51.902;9.542;2023-06-01T13:13:26;7.40;;;6.70;;
462;SDS011;218;51.902;9.542;2023-06-01T13:15:53;7.00;;;6.30;;
462;SDS011;218;51.902;9.542;2023-06-01T13:18:21;6.67;;;6.07;;
462;SDS011;218;51.902;9.542;2023-06-01T13:20:49;7.13;;;6.53;;
462;SDS011;218;51.902;9.542;2023-06-01T13:23:17;7.07;;;6.37;;
462;SDS011;218;51.902;9.542;2023-06-01T13:25:44;7.20;;;6.57;;
462;SDS011;218;51.902;9.542;2023-06-01T13:28:11;7.73;;;7.13;;
462;SDS011;218;51.902;9.542;2023-06-01T13:30:38;6.93;;;6.17;;
462;SDS011;218;51.902;9.542;2023-06-01T13:33:05;7.90;;;6.23;;
462;SDS011;218;51.902;9.542;2023-06-01T13:35:32;6.90;;;6.40;;
462;SDS011;218;51.902;9.542;2023-06-01T13:38:01;6.67;;;6.07;;
462;SDS011;218;51.902;9.542;2023-06-01T13:40:28;5.83;;;5.33;;
462;SDS011;218;51.902;9.542;2023-06-01T13:42:55;5.97;;;5.47;;
462;SDS011;218;51.902;9.542;2023-06-01T13:45:22;6.53;;;6.03;;
462;SDS011;218;51.902;9.542;2023-06-01T13:47:49;6.80;;;6.20;;
462;SDS011;218;51.902;9.542;2023-06-01T13:50:16;6.47;;;5.87;;
462;SDS011;218;51.902;9.542;2023-06-01T13:52:44;6.33;;;5.83;;
462;SDS011;218;51.902;9.542;2023-06-01T13:55:12;6.43;;;5.80;;
462;SDS011;218;51.902;9.542;2023-06-01T13:57:39;6.63;;;6.13;;
462;SDS011;218;51.902;9.542;2023-06-01T14:00:11;8.13;;;6.37;;
462;SDS011;218;51.902;9.542;2023-06-01T14:02:39;5.53;;;5.03;;
462;SDS011;218;51.902;9.542;2023-06-01T14:05:06;8.73;;;8.03;;
462;SDS011;218;51.902;9.542;2023-06-01T14:07:35;7.67;;;7.07;;
462;SDS011;218;51.902;9.542;2023-06-01T14:10:03;5.70;;;5.30;;
462;SDS011;218;51.902;9.542;2023-06-01T14:12:32;5.37;;;4.87;;
462;SDS011;218;51.902;9.542;2023-06-01T14:14:59;6.20;;;5.50;;
462;SDS011;218;51.902;9.542;2023-06-01T14:17:26;5.33;;;4.90;;
462;SDS011;218;51.902;9.542;2023-06-01T14:19:53;5.93;;;5.43;;
462;SDS011;218;51.902;9.542;2023-06-01T14:22:21;5.53;;;5.03;;
462;SDS011;218;51.902;9.542;2023-06-01T14:24:48;5.50;;;4.87;;
462;SDS011;218;51.902;9.542;2023-06-01T14:27:15;5.50;;;5.10;;
462;SDS011;218;51.902;9.542;2023-06-01T14:29:43;5.07;;;4.67;;
462;SDS011;218;51.902;9.542;2023-06-01T14:32:10;4.67;;;4.30;;
462;SDS011;218;51.902;9.542;2023-06-01T14:34:37;5.03;;;4.70;;
462;SDS011;218;51.902;9.542;2023-06-01T14:37:04;6.07;;;5.57;;
462;SDS011;218;51.902;9.542;2023-06-01T14:39:35;6.67;;;5.03;;
462;SDS011;218;51.902;9.542;2023-06-01T14:42:03;5.53;;;5.13;;
462;SDS011;218;51.902;9.542;2023-06-01T14:44:30;5.00;;;4.60;;
462;SDS011;218;51.902;9.542;2023-06-01T14:46:58;5.20;;;4.90;;
462;SDS011;218;51.902;9.542;2023-06-01T14:49:25;4.77;;;4.37;;
462;SDS011;218;51.902;9.542;2023-06-01T14:51:52;5.50;;;5.10;;
462;SDS011;218;51.902;9.542;2023-06-01T14:54:19;5.07;;;4.73;;
462;SDS011;218;51.902;9.542;2023-06-01T14:56:46;5.10;;;4.70;;
462;SDS011;218;51.902;9.542;2023-06-01T14:59:13;4.90;;;4.50;;
462;SDS011;218;51.902;9.542;2023-06-01T15:01:40;5.83;;;4.17;;
462;SDS011;218;51.902;9.542;2023-06-01T15:04:09;4.93;;;4.53;;
462;SDS011;218;51.902;9.542;2023-06-01T15:06:36;5.77;;;5.27;;
462;SDS011;218;51.902;9.542;2023-06-01T15:09:03;5.50;;;5.10;;
462;SDS011;218;51.902;9.542;2023-06-01T15:11:30;4.77;;;4.43;;
462;SDS011;218;51.902;9.542;2023-06-01T15:13:57;5.37;;;4.87;;
462;SDS011;218;51.902;9.542;2023-06-01T15:16:24;5.10;;;4.70;;
462;SDS011;218;51.902;9.542;2023-06-01T15:18:52;4.50;;;4.10;;
462;SDS011;218;51.902;9.542;2023-06-01T15:21:21;4.33;;;3.93;;
462;SDS011;218;51.902;9.542;2023-06-01T15:23:48;4.90;;;4.50;;
462;SDS011;218;51.902;9.542;2023-06-01T15:26:15;4.57;;;4.17;;
462;SDS011;218;51.902;9.542;2023-06-01T15:28:43;4.90;;;4.53;;
462;SDS011;218;51.902;9.542;2023-06-01T15:31:09;4.50;;;4.20;;
462;SDS011;218;51.902;9.542;2023-06-01T15:33:37;5.00;;;4.57;;
462;SDS011;218;51.902;9.542;2023-06-01T15:36:04;4.70;;;4.40;;
462;SDS011;218;51.902;9.542;2023-06-01T15:38:33;4.00;;;3.80;;
462;SDS011;218;51.902;9.542;2023-06-01T15:41:01;4.20;;;3.90;;
462;SDS011;218;51.902;9.542;2023-06-01T15:43:28;4.07;;;3.77;;
462;SDS011;218;51.902;9.542;2023-06-01T15:45:55;4.50;;;4.20;;
462;SDS011;218;51.902;9.542;2023-06-01T15:48:22;5.17;;;4.87;;
462;SDS011;218;51.902;9.542;2023-06-01T15:50:49;4.57;;;4.23;;
462;SDS011;218;51.902;9.542;2023-06-01T15:53:16;4.63;;;4.30;;
462;SDS011;218;51.902;9.542;2023-06-01T15:55:46;3.90;;;3.70;;